Uniopolis, Ohio
Current Conditions -  °F | °C
As of 6:10 PM on Tuesday 25 Nov 2014 (Local Time) from KAOH Reporting Station
Overcast Overcast  
Wind Chill: 19°   Ceiling: 1400
Heat Index: 29°   Visibility: 10mi
Dew Point: 23°   Wind: 12mph
Humidity: 78%   Direction: 270°W
Pressure: 30.15"   Gusts: NA
Location:  40.6°N, 84.09°W
Report Text: KAOH 252310Z AUTO 27010KT 10SM OVC014 M02/M05 A3015 RMK AO2 T10171050
Loading
Personal Weather Stations






























Interactive Weather Map New forecast layout! Learn more

10-Day Weather Forecast

Advertisements
Track Severe Weather on mobile